David F Stone — WCZ6032 — position and weather

sailwx.info

Track history (hours):
 
Tides and Currents Weather Stations Pressure Air Temp Water Temp Dewpoint Dewpoint Depression Visibility Wind Speed Wind Dir Waves Ship Positions

David F Stone

Owner: Blessey Enterprises, Inc., HARAHAN, LA. More information available from US FCC via Universal Licensing System and Coast Guard Vessel Documentation Center.

Last reported at 2017-Dec-12 07:58 UTC. Time now 2017-Dec-16 01:22 UTC.
Position N 29°20' W 094°50'.

Length 20 m.

Type: Ship. MMSI: 366935420.

Date/timePositionNaut miles runAvg speedWind from/ knotsBaromVisibWave heightAir tempDewpointWater temp
2017-Dec-12 07:58N 29°20' W 094°50'11 5.8
2017-Dec-12 06:03N 29°31' W 094°53'1 7.1
2017-Dec-12 05:59N 29°31' W 094°53'3 7.4
2017-Dec-12 05:30N 29°34' W 094°56'3 7.0
2017-Dec-12 05:01N 29°37' W 094°59'3 5.2
2017-Dec-12 04:31N 29°37' W 095°01'0 0.0
2017-Dec-12 04:01N 29°37' W 095°01'0 0.0
2017-Dec-12 03:31N 29°37' W 095°01'0 0.0
2017-Dec-12 03:01N 29°37' W 095°01'0 0.0
2017-Dec-12 02:30N 29°37' W 095°01'0 0.0
2017-Dec-12 02:00N 29°37' W 095°01'0 0.0
2017-Dec-12 01:30N 29°37' W 095°01'0 0.0
2017-Dec-12 01:00N 29°37' W 095°01'0 0.0
2017-Dec-12 00:30N 29°37' W 095°01'0 0.0
2017-Dec-12 00:00N 29°37' W 095°01'0 0.0
2017-Dec-11 23:30N 29°37' W 095°01'0 0.0
2017-Dec-11 23:00N 29°37' W 095°01'0 0.0
2017-Dec-11 22:31N 29°37' W 095°01'0 0.0
2017-Dec-11 22:01N 29°37' W 095°01'0 0.0
2017-Dec-11 21:30N 29°37' W 095°01'0 0.0
2017-Dec-11 21:01N 29°37' W 095°01'0 0.0
2017-Dec-11 20:30N 29°37' W 095°01'0 0.0
2017-Dec-11 20:00N 29°37' W 095°01'0 0.0
2017-Dec-11 19:31N 29°37' W 095°01'0 0.0
2017-Dec-11 19:01N 29°37' W 095°01'0 0.0
2017-Dec-11 18:30N 29°37' W 095°01'0 0.0
2017-Dec-11 18:01N 29°37' W 095°01'0 0.0
2017-Dec-11 17:31N 29°37' W 095°01'0 0.0
2017-Dec-11 17:01N 29°37' W 095°01'0 0.0
2017-Dec-11 16:31N 29°37' W 095°01'0 0.0
2017-Dec-11 16:00N 29°37' W 095°01'0 0.0
2017-Dec-11 15:30N 29°37' W 095°01'0 0.0
2017-Dec-11 15:00N 29°37' W 095°01'0 0.0
2017-Dec-11 14:30N 29°37' W 095°01'0 0.0
2017-Dec-11 14:00N 29°37' W 095°01'1 2.0
2017-Dec-11 13:30N 29°37' W 095°00'3 6.0
2017-Dec-11 13:00N 29°36' W 094°57'3 5.9
2017-Dec-11 12:30N 29°34' W 094°55'3 6.3
2017-Dec-11 11:59N 29°31' W 094°53'3 6.0
2017-Dec-11 11:30N 29°29' W 094°51'  
2017-Dec-07 19:11N 29°31' W 094°53'2 8.8
2017-Dec-07 19:00N 29°32' W 094°54'5 9.2
2017-Dec-07 18:30N 29°36' W 094°57'4 7.4
2017-Dec-07 18:00N 29°37' W 095°01'0 0.5
2017-Dec-07 17:31N 29°37' W 095°01'0 0.0
2017-Dec-07 17:01N 29°37' W 095°01'0 0.0
2017-Dec-07 16:30N 29°37' W 095°01'0 0.0
2017-Dec-07 16:00N 29°37' W 095°01'0 0.0
2017-Dec-07 15:30N 29°37' W 095°01'0 0.0
2017-Dec-07 15:00N 29°37' W 095°01'0 0.0
2017-Dec-07 14:31N 29°37' W 095°01'0 0.0
2017-Dec-07 14:00N 29°37' W 095°01'0 0.0
2017-Dec-07 13:31N 29°37' W 095°01'0 0.0
2017-Dec-07 13:01N 29°37' W 095°01'0 0.0
2017-Dec-07 12:31N 29°37' W 095°01'0 0.0
2017-Dec-07 12:00N 29°37' W 095°01'0 0.0
2017-Dec-07 11:30N 29°37' W 095°01'0 0.0
2017-Dec-07 11:00N 29°37' W 095°01'0 0.0
2017-Dec-07 10:30N 29°37' W 095°01'0 0.0
2017-Dec-07 10:00N 29°37' W 095°01'0 0.0
2017-Dec-07 09:30N 29°37' W 095°01'0 0.0
2017-Dec-07 09:00N 29°37' W 095°01'0 0.0
2017-Dec-07 08:30N 29°37' W 095°01'0 0.0
2017-Dec-07 08:00N 29°37' W 095°01'0 0.0
2017-Dec-07 07:30N 29°37' W 095°01'0 0.0
2017-Dec-07 07:00N 29°37' W 095°01'0 0.0
2017-Dec-07 06:30N 29°37' W 095°01'0 0.0
2017-Dec-07 06:00N 29°37' W 095°01'0 0.0
2017-Dec-07 05:30N 29°37' W 095°01'0 0.0
2017-Dec-07 05:00N 29°37' W 095°01'0 0.0
2017-Dec-07 04:30N 29°37' W 095°01'0 0.0
2017-Dec-07 04:00N 29°37' W 095°01'0 0.0
2017-Dec-07 03:30N 29°37' W 095°01'0 0.0
2017-Dec-07 03:00N 29°37' W 095°01'0 0.0
2017-Dec-07 02:30N 29°37' W 095°01'0 0.0
2017-Dec-07 02:00N 29°37' W 095°01'0 0.0
2017-Dec-07 01:30N 29°37' W 095°01'0 0.0
2017-Dec-07 01:00N 29°37' W 095°01'0 0.0
2017-Dec-07 00:30N 29°37' W 095°01'0 0.0
2017-Dec-07 00:00N 29°37' W 095°01'2 4.6
2017-Dec-06 23:30N 29°37' W 094°59'2 4.8
2017-Dec-06 23:00N 29°36' W 094°56'3 6.7
2017-Dec-06 22:30N 29°33' W 094°54'  
2017-Dec-04 10:31N 29°37' W 095°01'0 0.0
2017-Dec-04 10:01N 29°37' W 095°01'0 0.0
2017-Dec-04 09:31N 29°37' W 095°01'0 0.0
2017-Dec-04 09:01N 29°37' W 095°01'0 0.0
2017-Dec-04 08:31N 29°37' W 095°01'0 0.0
2017-Dec-04 08:01N 29°37' W 095°01'0 0.0
2017-Dec-04 07:31N 29°37' W 095°01'0 0.0
2017-Dec-04 07:01N 29°37' W 095°01'0 0.0
2017-Dec-04 06:31N 29°37' W 095°01'0 0.0
2017-Dec-04 06:01N 29°37' W 095°01'0 0.0
2017-Dec-04 05:31N 29°37' W 095°01'0 0.0
2017-Dec-04 05:00N 29°37' W 095°01'0 0.0
2017-Dec-04 04:31N 29°37' W 095°01'0 0.0
2017-Dec-04 04:01N 29°37' W 095°01'0 0.0
2017-Dec-04 03:31N 29°37' W 095°01'0 0.0
2017-Dec-04 03:01N 29°37' W 095°01'0 0.0
2017-Dec-04 02:30N 29°37' W 095°01'0 0.0
2017-Dec-04 02:01N 29°37' W 095°01'0 0.0
2017-Dec-04 01:31N 29°37' W 095°01'0 0.0
2017-Dec-04 01:01N 29°37' W 095°01'0 0.0
2017-Dec-04 00:30N 29°37' W 095°01'0 0.0
2017-Dec-04 00:01N 29°37' W 095°01'0 0.0
2017-Dec-03 23:31N 29°37' W 095°01'0 0.0
2017-Dec-03 23:01N 29°37' W 095°01'0 0.0
2017-Dec-03 22:31N 29°37' W 095°01'0 0.0
2017-Dec-03 22:01N 29°37' W 095°01'0 0.0
2017-Dec-03 21:31N 29°37' W 095°01'0 0.0
2017-Dec-03 21:01N 29°37' W 095°01'0 0.0
2017-Dec-03 20:30N 29°37' W 095°01'0 0.0
2017-Dec-03 20:01N 29°37' W 095°01'0 0.0
2017-Dec-03 19:31N 29°37' W 095°01'0 0.0
2017-Dec-03 19:01N 29°37' W 095°01'0 0.0
2017-Dec-03 18:31N 29°37' W 095°01'0 0.0
2017-Dec-03 18:01N 29°37' W 095°01'0 0.0
2017-Dec-03 17:31N 29°37' W 095°01'0 0.0
2017-Dec-03 17:01N 29°37' W 095°01'0 0.4
2017-Dec-03 16:31N 29°37' W 095°01'3 6.7
2017-Dec-03 16:01N 29°37' W 094°57'3 6.9
2017-Dec-03 15:30N 29°34' W 094°55'3 6.8
2017-Dec-03 15:00N 29°31' W 094°53'  
Track history (hours):
 
Tides and Currents Weather Stations Pressure Air Temp Water Temp Dewpoint Dewpoint Depression Visibility Wind Speed Wind Dir Waves Ship Positions

David F Stone

Owner: Blessey Enterprises, Inc., HARAHAN, LA. More information available from US FCC via Universal Licensing System and Coast Guard Vessel Documentation Center.

Last reported at 2017-Dec-12 07:58 UTC. Time now 2017-Dec-16 01:22 UTC.
Position N 29°20' W 094°50'.

Length 20 m.

Type: Ship. MMSI: 366935420.

Date/timePositionNaut miles runAvg speedWind from/ knotsBaromVisibWave heightAir tempDewpointWater temp
2017-Dec-12 07:58N 29°20' W 094°50'11 5.8
2017-Dec-12 06:03N 29°31' W 094°53'1 7.1
2017-Dec-12 05:59N 29°31' W 094°53'3 7.4
2017-Dec-12 05:30N 29°34' W 094°56'3 7.0
2017-Dec-12 05:01N 29°37' W 094°59'3 5.2
2017-Dec-12 04:31N 29°37' W 095°01'0 0.0
2017-Dec-12 04:01N 29°37' W 095°01'0 0.0
2017-Dec-12 03:31N 29°37' W 095°01'0 0.0
2017-Dec-12 03:01N 29°37' W 095°01'0 0.0
2017-Dec-12 02:30N 29°37' W 095°01'0 0.0
2017-Dec-12 02:00N 29°37' W 095°01'0 0.0
2017-Dec-12 01:30N 29°37' W 095°01'0 0.0
2017-Dec-12 01:00N 29°37' W 095°01'0 0.0
2017-Dec-12 00:30N 29°37' W 095°01'0 0.0
2017-Dec-12 00:00N 29°37' W 095°01'0 0.0
2017-Dec-11 23:30N 29°37' W 095°01'0 0.0
2017-Dec-11 23:00N 29°37' W 095°01'0 0.0
2017-Dec-11 22:31N 29°37' W 095°01'0 0.0
2017-Dec-11 22:01N 29°37' W 095°01'0 0.0
2017-Dec-11 21:30N 29°37' W 095°01'0 0.0
2017-Dec-11 21:01N 29°37' W 095°01'0 0.0
2017-Dec-11 20:30N 29°37' W 095°01'0 0.0
2017-Dec-11 20:00N 29°37' W 095°01'0 0.0
2017-Dec-11 19:31N 29°37' W 095°01'0 0.0
2017-Dec-11 19:01N 29°37' W 095°01'0 0.0
2017-Dec-11 18:30N 29°37' W 095°01'0 0.0
2017-Dec-11 18:01N 29°37' W 095°01'0 0.0
2017-Dec-11 17:31N 29°37' W 095°01'0 0.0
2017-Dec-11 17:01N 29°37' W 095°01'0 0.0
2017-Dec-11 16:31N 29°37' W 095°01'0 0.0
2017-Dec-11 16:00N 29°37' W 095°01'0 0.0
2017-Dec-11 15:30N 29°37' W 095°01'0 0.0
2017-Dec-11 15:00N 29°37' W 095°01'0 0.0
2017-Dec-11 14:30N 29°37' W 095°01'0 0.0
2017-Dec-11 14:00N 29°37' W 095°01'1 2.0
2017-Dec-11 13:30N 29°37' W 095°00'3 6.0
2017-Dec-11 13:00N 29°36' W 094°57'3 5.9
2017-Dec-11 12:30N 29°34' W 094°55'3 6.3
2017-Dec-11 11:59N 29°31' W 094°53'3 6.0
2017-Dec-11 11:30N 29°29' W 094°51'  
2017-Dec-07 19:11N 29°31' W 094°53'2 8.8
2017-Dec-07 19:00N 29°32' W 094°54'5 9.2
2017-Dec-07 18:30N 29°36' W 094°57'4 7.4
2017-Dec-07 18:00N 29°37' W 095°01'0 0.5
2017-Dec-07 17:31N 29°37' W 095°01'0 0.0
2017-Dec-07 17:01N 29°37' W 095°01'0 0.0
2017-Dec-07 16:30N 29°37' W 095°01'0 0.0
2017-Dec-07 16:00N 29°37' W 095°01'0 0.0
2017-Dec-07 15:30N 29°37' W 095°01'0 0.0
2017-Dec-07 15:00N 29°37' W 095°01'0 0.0
2017-Dec-07 14:31N 29°37' W 095°01'0 0.0
2017-Dec-07 14:00N 29°37' W 095°01'0 0.0
2017-Dec-07 13:31N 29°37' W 095°01'0 0.0
2017-Dec-07 13:01N 29°37' W 095°01'0 0.0
2017-Dec-07 12:31N 29°37' W 095°01'0 0.0
2017-Dec-07 12:00N 29°37' W 095°01'0 0.0
2017-Dec-07 11:30N 29°37' W 095°01'0 0.0
2017-Dec-07 11:00N 29°37' W 095°01'0 0.0
2017-Dec-07 10:30N 29°37' W 095°01'0 0.0
2017-Dec-07 10:00N 29°37' W 095°01'0 0.0
2017-Dec-07 09:30N 29°37' W 095°01'0 0.0
2017-Dec-07 09:00N 29°37' W 095°01'0 0.0
2017-Dec-07 08:30N 29°37' W 095°01'0 0.0
2017-Dec-07 08:00N 29°37' W 095°01'0 0.0
2017-Dec-07 07:30N 29°37' W 095°01'0 0.0
2017-Dec-07 07:00N 29°37' W 095°01'0 0.0
2017-Dec-07 06:30N 29°37' W 095°01'0 0.0
2017-Dec-07 06:00N 29°37' W 095°01'0 0.0
2017-Dec-07 05:30N 29°37' W 095°01'0 0.0
2017-Dec-07 05:00N 29°37' W 095°01'0 0.0
2017-Dec-07 04:30N 29°37' W 095°01'0 0.0
2017-Dec-07 04:00N 29°37' W 095°01'0 0.0
2017-Dec-07 03:30N 29°37' W 095°01'0 0.0
2017-Dec-07 03:00N 29°37' W 095°01'0 0.0
2017-Dec-07 02:30N 29°37' W 095°01'0 0.0
2017-Dec-07 02:00N 29°37' W 095°01'0 0.0
2017-Dec-07 01:30N 29°37' W 095°01'0 0.0
2017-Dec-07 01:00N 29°37' W 095°01'0 0.0
2017-Dec-07 00:30N 29°37' W 095°01'0 0.0
2017-Dec-07 00:00N 29°37' W 095°01'2 4.6
2017-Dec-06 23:30N 29°37' W 094°59'2 4.8
2017-Dec-06 23:00N 29°36' W 094°56'3 6.7
2017-Dec-06 22:30N 29°33' W 094°54'  
2017-Dec-04 10:31N 29°37' W 095°01'0 0.0
2017-Dec-04 10:01N 29°37' W 095°01'0 0.0
2017-Dec-04 09:31N 29°37' W 095°01'0 0.0
2017-Dec-04 09:01N 29°37' W 095°01'0 0.0
2017-Dec-04 08:31N 29°37' W 095°01'0 0.0
2017-Dec-04 08:01N 29°37' W 095°01'0 0.0
2017-Dec-04 07:31N 29°37' W 095°01'0 0.0
2017-Dec-04 07:01N 29°37' W 095°01'0 0.0
2017-Dec-04 06:31N 29°37' W 095°01'0 0.0
2017-Dec-04 06:01N 29°37' W 095°01'0 0.0
2017-Dec-04 05:31N 29°37' W 095°01'0 0.0
2017-Dec-04 05:00N 29°37' W 095°01'0 0.0
2017-Dec-04 04:31N 29°37' W 095°01'0 0.0
2017-Dec-04 04:01N 29°37' W 095°01'0 0.0
2017-Dec-04 03:31N 29°37' W 095°01'0 0.0
2017-Dec-04 03:01N 29°37' W 095°01'0 0.0
2017-Dec-04 02:30N 29°37' W 095°01'0 0.0
2017-Dec-04 02:01N 29°37' W 095°01'0 0.0
2017-Dec-04 01:31N 29°37' W 095°01'0 0.0
2017-Dec-04 01:01N 29°37' W 095°01'0 0.0
2017-Dec-04 00:30N 29°37' W 095°01'0 0.0
2017-Dec-04 00:01N 29°37' W 095°01'0 0.0
2017-Dec-03 23:31N 29°37' W 095°01'0 0.0
2017-Dec-03 23:01N 29°37' W 095°01'0 0.0
2017-Dec-03 22:31N 29°37' W 095°01'0 0.0
2017-Dec-03 22:01N 29°37' W 095°01'0 0.0
2017-Dec-03 21:31N 29°37' W 095°01'0 0.0
2017-Dec-03 21:01N 29°37' W 095°01'0 0.0
2017-Dec-03 20:30N 29°37' W 095°01'0 0.0
2017-Dec-03 20:01N 29°37' W 095°01'0 0.0
2017-Dec-03 19:31N 29°37' W 095°01'0 0.0
2017-Dec-03 19:01N 29°37' W 095°01'0 0.0
2017-Dec-03 18:31N 29°37' W 095°01'0 0.0
2017-Dec-03 18:01N 29°37' W 095°01'0 0.0
2017-Dec-03 17:31N 29°37' W 095°01'0 0.0
2017-Dec-03 17:01N 29°37' W 095°01'0 0.4
2017-Dec-03 16:31N 29°37' W 095°01'3 6.7
2017-Dec-03 16:01N 29°37' W 094°57'3 6.9
2017-Dec-03 15:30N 29°34' W 094°55'3 6.8
2017-Dec-03 15:00N 29°31' W 094°53'  

Dump ship's entire track history